sensor_id;sensor_type;location;lat;lon;timestamp;P1;durP1;ratioP1;P2;durP2;ratioP2
4652;SDS011;9900;48.738;9.306;2023-05-16T00:01:59;9.03;;;6.70;;
4652;SDS011;9900;48.738;9.306;2023-05-16T00:04:28;9.07;;;6.87;;
4652;SDS011;9900;48.738;9.306;2023-05-16T00:06:57;8.90;;;6.87;;
4652;SDS011;9900;48.738;9.306;2023-05-16T00:09:26;8.57;;;6.23;;
4652;SDS011;9900;48.738;9.306;2023-05-16T00:11:54;7.57;;;6.77;;
4652;SDS011;9900;48.738;9.306;2023-05-16T00:14:24;8.20;;;6.40;;
4652;SDS011;9900;48.738;9.306;2023-05-16T00:16:54;9.30;;;6.30;;
4652;SDS011;9900;48.738;9.306;2023-05-16T00:19:24;6.63;;;6.00;;
4652;SDS011;9900;48.738;9.306;2023-05-16T00:21:54;7.20;;;5.87;;
4652;SDS011;9900;48.738;9.306;2023-05-16T00:24:22;7.37;;;6.57;;
4652;SDS011;9900;48.738;9.306;2023-05-16T00:26:51;9.97;;;6.20;;
4652;SDS011;9900;48.738;9.306;2023-05-16T00:29:19;7.63;;;6.03;;
4652;SDS011;9900;48.738;9.306;2023-05-16T00:31:50;7.40;;;6.60;;
4652;SDS011;9900;48.738;9.306;2023-05-16T00:34:20;7.47;;;6.73;;
4652;SDS011;9900;48.738;9.306;2023-05-16T00:36:49;8.27;;;6.53;;
4652;SDS011;9900;48.738;9.306;2023-05-16T00:39:18;10.57;;;7.60;;
4652;SDS011;9900;48.738;9.306;2023-05-16T00:41:46;11.23;;;7.70;;
4652;SDS011;9900;48.738;9.306;2023-05-16T00:44:15;7.07;;;6.40;;
4652;SDS011;9900;48.738;9.306;2023-05-16T00:46:43;9.20;;;7.50;;
4652;SDS011;9900;48.738;9.306;2023-05-16T00:49:12;19.83;;;7.33;;
4652;SDS011;9900;48.738;9.306;2023-05-16T00:51:42;10.20;;;7.50;;
4652;SDS011;9900;48.738;9.306;2023-05-16T00:54:11;9.07;;;7.30;;
4652;SDS011;9900;48.738;9.306;2023-05-16T00:56:40;8.17;;;7.27;;
4652;SDS011;9900;48.738;9.306;2023-05-16T00:59:09;8.20;;;7.37;;
4652;SDS011;9900;48.738;9.306;2023-05-16T01:01:38;8.33;;;7.40;;
4652;SDS011;9900;48.738;9.306;2023-05-16T01:04:08;10.13;;;7.67;;
4652;SDS011;9900;48.738;9.306;2023-05-16T01:06:37;15.83;;;7.33;;
4652;SDS011;9900;48.738;9.306;2023-05-16T01:09:07;9.83;;;7.50;;
4652;SDS011;9900;48.738;9.306;2023-05-16T01:11:38;9.03;;;7.70;;
4652;SDS011;9900;48.738;9.306;2023-05-16T01:14:13;8.53;;;7.73;;
4652;SDS011;9900;48.738;9.306;2023-05-16T01:16:45;11.10;;;7.90;;
4652;SDS011;9900;48.738;9.306;2023-05-16T01:19:20;12.20;;;8.37;;
4652;SDS011;9900;48.738;9.306;2023-05-16T01:22:01;12.00;;;8.33;;
4652;SDS011;9900;48.738;9.306;2023-05-16T01:24:34;11.57;;;8.50;;
4652;SDS011;9900;48.738;9.306;2023-05-16T01:27:10;11.13;;;8.70;;
4652;SDS011;9900;48.738;9.306;2023-05-16T01:29:39;16.13;;;9.17;;
4652;SDS011;9900;48.738;9.306;2023-05-16T01:32:07;13.03;;;8.60;;
4652;SDS011;9900;48.738;9.306;2023-05-16T01:34:36;12.83;;;9.00;;
4652;SDS011;9900;48.738;9.306;2023-05-16T01:37:06;10.43;;;8.70;;
4652;SDS011;9900;48.738;9.306;2023-05-16T01:39:40;13.17;;;8.77;;
4652;SDS011;9900;48.738;9.306;2023-05-16T01:42:14;10.10;;;8.40;;
4652;SDS011;9900;48.738;9.306;2023-05-16T01:44:44;9.60;;;8.57;;
4652;SDS011;9900;48.738;9.306;2023-05-16T01:47:15;24.87;;;10.03;;
4652;SDS011;9900;48.738;9.306;2023-05-16T01:49:46;12.03;;;8.30;;
4652;SDS011;9900;48.738;9.306;2023-05-16T01:52:19;8.97;;;7.70;;
4652;SDS011;9900;48.738;9.306;2023-05-16T01:54:51;12.00;;;8.90;;
4652;SDS011;9900;48.738;9.306;2023-05-16T01:57:23;8.57;;;7.67;;
4652;SDS011;9900;48.738;9.306;2023-05-16T01:59:53;11.97;;;9.00;;
4652;SDS011;9900;48.738;9.306;2023-05-16T02:02:22;8.93;;;8.03;;
4652;SDS011;9900;48.738;9.306;2023-05-16T02:04:51;11.47;;;8.77;;
4652;SDS011;9900;48.738;9.306;2023-05-16T02:07:19;13.70;;;8.60;;
4652;SDS011;9900;48.738;9.306;2023-05-16T02:09:48;10.37;;;9.10;;
4652;SDS011;9900;48.738;9.306;2023-05-16T02:12:16;13.47;;;8.53;;
4652;SDS011;9900;48.738;9.306;2023-05-16T02:14:46;11.20;;;8.90;;
4652;SDS011;9900;48.738;9.306;2023-05-16T02:17:15;9.80;;;7.70;;
4652;SDS011;9900;48.738;9.306;2023-05-16T02:19:44;9.43;;;8.43;;
4652;SDS011;9900;48.738;9.306;2023-05-16T02:22:12;9.10;;;8.20;;
4652;SDS011;9900;48.738;9.306;2023-05-16T02:24:41;12.43;;;8.47;;
4652;SDS011;9900;48.738;9.306;2023-05-16T02:27:10;9.50;;;8.23;;
4652;SDS011;9900;48.738;9.306;2023-05-16T02:29:38;9.93;;;8.30;;
4652;SDS011;9900;48.738;9.306;2023-05-16T02:32:08;8.83;;;7.90;;
4652;SDS011;9900;48.738;9.306;2023-05-16T02:34:37;11.07;;;8.67;;
4652;SDS011;9900;48.738;9.306;2023-05-16T02:37:06;10.40;;;8.67;;
4652;SDS011;9900;48.738;9.306;2023-05-16T02:39:34;17.03;;;9.80;;
4652;SDS011;9900;48.738;9.306;2023-05-16T02:42:04;9.97;;;8.83;;
4652;SDS011;9900;48.738;9.306;2023-05-16T02:44:33;11.00;;;8.80;;
4652;SDS011;9900;48.738;9.306;2023-05-16T02:47:02;10.60;;;8.43;;
4652;SDS011;9900;48.738;9.306;2023-05-16T02:49:33;11.40;;;9.10;;
4652;SDS011;9900;48.738;9.306;2023-05-16T02:52:01;11.77;;;8.87;;
4652;SDS011;9900;48.738;9.306;2023-05-16T02:54:30;12.03;;;7.93;;
4652;SDS011;9900;48.738;9.306;2023-05-16T02:56:59;11.77;;;9.40;;
4652;SDS011;9900;48.738;9.306;2023-05-16T02:59:28;13.73;;;9.97;;
4652;SDS011;9900;48.738;9.306;2023-05-16T03:01:57;10.70;;;8.47;;
4652;SDS011;9900;48.738;9.306;2023-05-16T03:04:26;9.70;;;8.73;;
4652;SDS011;9900;48.738;9.306;2023-05-16T03:06:56;9.97;;;8.97;;
4652;SDS011;9900;48.738;9.306;2023-05-16T03:09:24;11.23;;;9.53;;
4652;SDS011;9900;48.738;9.306;2023-05-16T03:11:53;12.70;;;10.17;;
4652;SDS011;9900;48.738;9.306;2023-05-16T03:14:22;11.20;;;8.80;;
4652;SDS011;9900;48.738;9.306;2023-05-16T03:16:51;11.73;;;10.13;;
4652;SDS011;9900;48.738;9.306;2023-05-16T03:19:19;10.90;;;9.80;;
4652;SDS011;9900;48.738;9.306;2023-05-16T03:21:48;16.40;;;9.67;;
4652;SDS011;9900;48.738;9.306;2023-05-16T03:24:18;13.47;;;9.20;;
4652;SDS011;9900;48.738;9.306;2023-05-16T03:26:49;13.60;;;8.97;;
4652;SDS011;9900;48.738;9.306;2023-05-16T03:29:18;12.87;;;9.77;;
4652;SDS011;9900;48.738;9.306;2023-05-16T03:31:46;10.83;;;9.73;;
4652;SDS011;9900;48.738;9.306;2023-05-16T03:34:16;13.67;;;10.00;;
4652;SDS011;9900;48.738;9.306;2023-05-16T03:36:44;16.03;;;9.73;;
4652;SDS011;9900;48.738;9.306;2023-05-16T03:39:13;12.80;;;9.37;;
4652;SDS011;9900;48.738;9.306;2023-05-16T03:41:43;14.33;;;9.90;;
4652;SDS011;9900;48.738;9.306;2023-05-16T03:44:12;15.20;;;10.27;;
4652;SDS011;9900;48.738;9.306;2023-05-16T03:46:40;14.57;;;9.00;;
4652;SDS011;9900;48.738;9.306;2023-05-16T03:49:09;13.97;;;9.80;;
4652;SDS011;9900;48.738;9.306;2023-05-16T03:51:38;16.03;;;10.77;;
4652;SDS011;9900;48.738;9.306;2023-05-16T03:54:06;12.30;;;9.93;;
4652;SDS011;9900;48.738;9.306;2023-05-16T03:56:35;16.57;;;9.80;;
4652;SDS011;9900;48.738;9.306;2023-05-16T03:59:05;14.60;;;10.10;;
4652;SDS011;9900;48.738;9.306;2023-05-16T04:01:34;13.87;;;10.00;;
4652;SDS011;9900;48.738;9.306;2023-05-16T04:04:02;14.60;;;10.80;;
4652;SDS011;9900;48.738;9.306;2023-05-16T04:06:31;16.77;;;10.00;;
4652;SDS011;9900;48.738;9.306;2023-05-16T04:09:00;15.70;;;11.40;;
4652;SDS011;9900;48.738;9.306;2023-05-16T04:11:29;15.83;;;11.00;;
4652;SDS011;9900;48.738;9.306;2023-05-16T04:13:58;15.80;;;11.67;;
4652;SDS011;9900;48.738;9.306;2023-05-16T04:16:29;17.00;;;10.10;;
4652;SDS011;9900;48.738;9.306;2023-05-16T04:18:58;15.90;;;10.67;;
4652;SDS011;9900;48.738;9.306;2023-05-16T04:21:26;17.63;;;12.73;;
4652;SDS011;9900;48.738;9.306;2023-05-16T04:23:55;17.40;;;12.87;;
4652;SDS011;9900;48.738;9.306;2023-05-16T04:26:24;20.50;;;12.67;;
4652;SDS011;9900;48.738;9.306;2023-05-16T04:28:53;19.00;;;13.60;;
4652;SDS011;9900;48.738;9.306;2023-05-16T04:31:22;17.57;;;13.50;;
4652;SDS011;9900;48.738;9.306;2023-05-16T04:33:52;17.70;;;14.13;;
4652;SDS011;9900;48.738;9.306;2023-05-16T04:36:22;17.67;;;12.77;;
4652;SDS011;9900;48.738;9.306;2023-05-16T04:38:50;24.67;;;11.80;;
4652;SDS011;9900;48.738;9.306;2023-05-16T04:41:19;16.67;;;11.00;;
4652;SDS011;9900;48.738;9.306;2023-05-16T04:43:48;13.63;;;11.37;;
4652;SDS011;9900;48.738;9.306;2023-05-16T04:46:18;15.23;;;11.50;;
4652;SDS011;9900;48.738;9.306;2023-05-16T04:48:47;18.27;;;12.90;;
4652;SDS011;9900;48.738;9.306;2023-05-16T04:51:17;16.77;;;12.43;;
4652;SDS011;9900;48.738;9.306;2023-05-16T04:53:45;15.83;;;11.97;;
4652;SDS011;9900;48.738;9.306;2023-05-16T04:56:14;21.47;;;14.17;;
4652;SDS011;9900;48.738;9.306;2023-05-16T04:58:42;22.73;;;15.50;;
4652;SDS011;9900;48.738;9.306;2023-05-16T05:01:11;29.57;;;18.83;;
4652;SDS011;9900;48.738;9.306;2023-05-16T05:03:40;33.17;;;19.50;;
4652;SDS011;9900;48.738;9.306;2023-05-16T05:06:09;35.13;;;23.30;;
4652;SDS011;9900;48.738;9.306;2023-05-16T05:08:39;33.77;;;21.90;;
4652;SDS011;9900;48.738;9.306;2023-05-16T05:11:07;42.17;;;26.70;;
4652;SDS011;9900;48.738;9.306;2023-05-16T05:13:36;47.20;;;29.97;;
4652;SDS011;9900;48.738;9.306;2023-05-16T05:16:05;50.90;;;30.90;;
4652;SDS011;9900;48.738;9.306;2023-05-16T05:18:33;48.40;;;31.57;;
4652;SDS011;9900;48.738;9.306;2023-05-16T05:21:02;51.77;;;33.77;;
4652;SDS011;9900;48.738;9.306;2023-05-16T05:23:31;51.17;;;29.97;;
4652;SDS011;9900;48.738;9.306;2023-05-16T05:26:02;47.47;;;30.20;;
4652;SDS011;9900;48.738;9.306;2023-05-16T05:28:31;53.53;;;32.00;;
4652;SDS011;9900;48.738;9.306;2023-05-16T05:30:59;49.83;;;29.90;;
4652;SDS011;9900;48.738;9.306;2023-05-16T05:33:28;50.53;;;30.97;;
4652;SDS011;9900;48.738;9.306;2023-05-16T05:35:57;45.87;;;30.33;;
4652;SDS011;9900;48.738;9.306;2023-05-16T05:38:28;48.07;;;29.00;;
4652;SDS011;9900;48.738;9.306;2023-05-16T05:40:57;51.33;;;29.80;;
4652;SDS011;9900;48.738;9.306;2023-05-16T05:43:27;47.03;;;29.73;;
4652;SDS011;9900;48.738;9.306;2023-05-16T05:45:56;47.30;;;30.67;;
4652;SDS011;9900;48.738;9.306;2023-05-16T05:48:24;51.30;;;31.97;;
4652;SDS011;9900;48.738;9.306;2023-05-16T05:50:54;46.20;;;30.33;;
4652;SDS011;9900;48.738;9.306;2023-05-16T05:53:23;48.57;;;30.67;;
4652;SDS011;9900;48.738;9.306;2023-05-16T05:55:52;47.63;;;31.03;;
4652;SDS011;9900;48.738;9.306;2023-05-16T05:58:21;53.87;;;31.90;;
4652;SDS011;9900;48.738;9.306;2023-05-16T06:00:51;50.73;;;31.23;;
4652;SDS011;9900;48.738;9.306;2023-05-16T06:03:19;49.33;;;30.97;;
4652;SDS011;9900;48.738;9.306;2023-05-16T06:05:48;46.63;;;27.73;;
4652;SDS011;9900;48.738;9.306;2023-05-16T06:08:17;44.77;;;29.17;;
4652;SDS011;9900;48.738;9.306;2023-05-16T06:10:46;45.63;;;28.00;;
4652;SDS011;9900;48.738;9.306;2023-05-16T06:13:14;46.30;;;30.97;;
4652;SDS011;9900;48.738;9.306;2023-05-16T06:15:43;41.93;;;27.40;;
4652;SDS011;9900;48.738;9.306;2023-05-16T06:18:13;46.13;;;29.73;;
4652;SDS011;9900;48.738;9.306;2023-05-16T06:20:42;40.00;;;27.60;;
4652;SDS011;9900;48.738;9.306;2023-05-16T06:23:10;46.20;;;27.57;;
4652;SDS011;9900;48.738;9.306;2023-05-16T06:25:39;40.93;;;26.50;;
4652;SDS011;9900;48.738;9.306;2023-05-16T06:28:08;45.20;;;27.33;;
4652;SDS011;9900;48.738;9.306;2023-05-16T06:30:36;52.17;;;28.20;;
4652;SDS011;9900;48.738;9.306;2023-05-16T06:33:05;33.37;;;23.23;;
4652;SDS011;9900;48.738;9.306;2023-05-16T06:35:35;31.10;;;22.60;;
4652;SDS011;9900;48.738;9.306;2023-05-16T06:38:04;39.53;;;24.50;;
4652;SDS011;9900;48.738;9.306;2023-05-16T06:40:32;33.07;;;23.47;;
4652;SDS011;9900;48.738;9.306;2023-05-16T06:43:01;39.87;;;26.60;;
4652;SDS011;9900;48.738;9.306;2023-05-16T06:45:30;38.47;;;23.70;;
4652;SDS011;9900;48.738;9.306;2023-05-16T06:47:58;31.07;;;22.00;;
4652;SDS011;9900;48.738;9.306;2023-05-16T06:50:27;33.13;;;21.13;;
4652;SDS011;9900;48.738;9.306;2023-05-16T06:52:57;29.90;;;20.67;;
4652;SDS011;9900;48.738;9.306;2023-05-16T06:55:26;31.00;;;21.07;;
4652;SDS011;9900;48.738;9.306;2023-05-16T06:57:55;30.83;;;21.10;;
4652;SDS011;9900;48.738;9.306;2023-05-16T07:00:24;31.10;;;19.77;;
4652;SDS011;9900;48.738;9.306;2023-05-16T07:02:53;25.47;;;18.40;;
4652;SDS011;9900;48.738;9.306;2023-05-16T07:05:22;28.60;;;19.83;;
4652;SDS011;9900;48.738;9.306;2023-05-16T07:07:51;23.83;;;18.17;;
4652;SDS011;9900;48.738;9.306;2023-05-16T07:10:21;23.17;;;18.17;;
4652;SDS011;9900;48.738;9.306;2023-05-16T07:12:50;25.80;;;17.80;;
4652;SDS011;9900;48.738;9.306;2023-05-16T07:15:19;28.93;;;18.60;;
4652;SDS011;9900;48.738;9.306;2023-05-16T07:17:47;28.80;;;17.20;;
4652;SDS011;9900;48.738;9.306;2023-05-16T07:20:17;29.07;;;17.60;;
4652;SDS011;9900;48.738;9.306;2023-05-16T07:22:45;27.10;;;16.53;;
4652;SDS011;9900;48.738;9.306;2023-05-16T07:25:14;26.90;;;16.53;;
4652;SDS011;9900;48.738;9.306;2023-05-16T07:27:44;25.30;;;15.60;;
4652;SDS011;9900;48.738;9.306;2023-05-16T07:30:13;25.80;;;15.87;;
4652;SDS011;9900;48.738;9.306;2023-05-16T07:32:42;24.13;;;15.80;;
4652;SDS011;9900;48.738;9.306;2023-05-16T07:35:11;20.53;;;15.40;;
4652;SDS011;9900;48.738;9.306;2023-05-16T07:37:40;26.03;;;16.87;;
4652;SDS011;9900;48.738;9.306;2023-05-16T07:40:10;19.90;;;14.93;;
4652;SDS011;9900;48.738;9.306;2023-05-16T07:42:39;26.13;;;17.60;;
4652;SDS011;9900;48.738;9.306;2023-05-16T07:45:09;19.83;;;15.90;;
4652;SDS011;9900;48.738;9.306;2023-05-16T07:47:38;22.90;;;17.43;;
4652;SDS011;9900;48.738;9.306;2023-05-16T07:50:07;24.20;;;17.77;;
4652;SDS011;9900;48.738;9.306;2023-05-16T07:52:36;24.90;;;17.50;;
4652;SDS011;9900;48.738;9.306;2023-05-16T07:55:05;20.53;;;15.50;;
4652;SDS011;9900;48.738;9.306;2023-05-16T07:57:35;27.27;;;17.57;;
4652;SDS011;9900;48.738;9.306;2023-05-16T08:00:04;19.37;;;15.43;;
4652;SDS011;9900;48.738;9.306;2023-05-16T08:02:35;28.17;;;16.17;;
4652;SDS011;9900;48.738;9.306;2023-05-16T08:05:05;23.87;;;14.07;;
4652;SDS011;9900;48.738;9.306;2023-05-16T08:07:35;22.23;;;15.30;;
4652;SDS011;9900;48.738;9.306;2023-05-16T08:10:04;19.73;;;14.83;;
4652;SDS011;9900;48.738;9.306;2023-05-16T08:12:33;18.40;;;13.83;;
4652;SDS011;9900;48.738;9.306;2023-05-16T08:15:02;18.13;;;13.77;;
4652;SDS011;9900;48.738;9.306;2023-05-16T08:17:31;16.10;;;12.90;;
4652;SDS011;9900;48.738;9.306;2023-05-16T08:20:01;14.93;;;11.80;;
4652;SDS011;9900;48.738;9.306;2023-05-16T08:22:30;17.73;;;13.20;;
4652;SDS011;9900;48.738;9.306;2023-05-16T08:24:59;16.97;;;12.83;;
4652;SDS011;9900;48.738;9.306;2023-05-16T08:27:28;16.63;;;13.10;;
4652;SDS011;9900;48.738;9.306;2023-05-16T08:29:57;19.63;;;13.00;;
4652;SDS011;9900;48.738;9.306;2023-05-16T08:32:25;17.33;;;11.50;;
4652;SDS011;9900;48.738;9.306;2023-05-16T08:34:54;17.30;;;11.13;;
4652;SDS011;9900;48.738;9.306;2023-05-16T08:37:24;14.10;;;11.20;;
4652;SDS011;9900;48.738;9.306;2023-05-16T08:39:53;14.10;;;10.83;;
4652;SDS011;9900;48.738;9.306;2023-05-16T08:42:21;13.00;;;10.83;;
4652;SDS011;9900;48.738;9.306;2023-05-16T08:44:50;11.20;;;10.10;;
4652;SDS011;9900;48.738;9.306;2023-05-16T08:47:19;10.93;;;9.23;;
4652;SDS011;9900;48.738;9.306;2023-05-16T08:49:50;10.93;;;9.67;;
4652;SDS011;9900;48.738;9.306;2023-05-16T08:52:19;14.40;;;10.43;;
4652;SDS011;9900;48.738;9.306;2023-05-16T08:54:50;12.23;;;10.90;;
4652;SDS011;9900;48.738;9.306;2023-05-16T08:57:37;12.73;;;10.00;;
4652;SDS011;9900;48.738;9.306;2023-05-16T09:00:06;11.43;;;10.23;;
4652;SDS011;9900;48.738;9.306;2023-05-16T09:02:39;11.37;;;10.17;;
4652;SDS011;9900;48.738;9.306;2023-05-16T09:05:09;12.07;;;10.23;;
4652;SDS011;9900;48.738;9.306;2023-05-16T09:07:38;12.80;;;11.40;;
4652;SDS011;9900;48.738;9.306;2023-05-16T09:10:09;13.10;;;10.97;;
4652;SDS011;9900;48.738;9.306;2023-05-16T09:12:38;18.23;;;12.10;;
4652;SDS011;9900;48.738;9.306;2023-05-16T09:15:08;15.30;;;10.93;;
4652;SDS011;9900;48.738;9.306;2023-05-16T09:17:38;16.27;;;11.00;;
4652;SDS011;9900;48.738;9.306;2023-05-16T09:20:11;19.27;;;12.23;;
4652;SDS011;9900;48.738;9.306;2023-05-16T09:22:49;15.47;;;11.60;;
4652;SDS011;9900;48.738;9.306;2023-05-16T09:25:20;12.93;;;10.87;;
4652;SDS011;9900;48.738;9.306;2023-05-16T09:27:58;20.20;;;12.73;;
4652;SDS011;9900;48.738;9.306;2023-05-16T09:30:28;15.63;;;11.60;;
4652;SDS011;9900;48.738;9.306;2023-05-16T09:32:58;15.23;;;12.17;;
4652;SDS011;9900;48.738;9.306;2023-05-16T09:35:27;18.50;;;12.70;;
4652;SDS011;9900;48.738;9.306;2023-05-16T09:38:15;17.10;;;13.20;;
4652;SDS011;9900;48.738;9.306;2023-05-16T09:40:46;17.00;;;13.00;;
4652;SDS011;9900;48.738;9.306;2023-05-16T09:43:15;19.90;;;14.20;;
4652;SDS011;9900;48.738;9.306;2023-05-16T09:45:45;20.40;;;15.10;;
4652;SDS011;9900;48.738;9.306;2023-05-16T09:48:15;22.60;;;16.00;;
4652;SDS011;9900;48.738;9.306;2023-05-16T09:50:45;21.63;;;16.10;;
4652;SDS011;9900;48.738;9.306;2023-05-16T09:53:16;20.70;;;16.20;;
4652;SDS011;9900;48.738;9.306;2023-05-16T09:55:46;20.87;;;15.97;;
4652;SDS011;9900;48.738;9.306;2023-05-16T09:58:15;22.70;;;15.90;;
4652;SDS011;9900;48.738;9.306;2023-05-16T10:00:45;21.23;;;16.33;;
4652;SDS011;9900;48.738;9.306;2023-05-16T10:03:14;22.73;;;16.50;;
4652;SDS011;9900;48.738;9.306;2023-05-16T10:05:43;22.50;;;16.83;;
4652;SDS011;9900;48.738;9.306;2023-05-16T10:08:11;24.90;;;16.80;;
4652;SDS011;9900;48.738;9.306;2023-05-16T10:10:41;30.77;;;17.90;;
4652;SDS011;9900;48.738;9.306;2023-05-16T10:13:11;32.70;;;18.03;;
4652;SDS011;9900;48.738;9.306;2023-05-16T10:15:40;25.60;;;17.00;;
4652;SDS011;9900;48.738;9.306;2023-05-16T10:18:09;23.53;;;17.50;;
4652;SDS011;9900;48.738;9.306;2023-05-16T10:20:40;22.13;;;16.60;;
4652;SDS011;9900;48.738;9.306;2023-05-16T10:23:11;28.23;;;18.10;;
4652;SDS011;9900;48.738;9.306;2023-05-16T10:25:44;22.67;;;17.00;;
4652;SDS011;9900;48.738;9.306;2023-05-16T10:28:15;23.23;;;16.00;;
4652;SDS011;9900;48.738;9.306;2023-05-16T10:30:45;24.47;;;17.67;;
4652;SDS011;9900;48.738;9.306;2023-05-16T10:33:14;23.60;;;18.00;;
4652;SDS011;9900;48.738;9.306;2023-05-16T10:35:44;24.17;;;17.60;;
4652;SDS011;9900;48.738;9.306;2023-05-16T10:38:14;27.43;;;17.53;;
4652;SDS011;9900;48.738;9.306;2023-05-16T10:40:44;25.30;;;17.77;;
4652;SDS011;9900;48.738;9.306;2023-05-16T10:43:23;24.87;;;17.60;;
4652;SDS011;9900;48.738;9.306;2023-05-16T10:45:53;19.70;;;15.20;;
4652;SDS011;9900;48.738;9.306;2023-05-16T10:48:29;23.63;;;15.87;;
4652;SDS011;9900;48.738;9.306;2023-05-16T10:50:58;21.93;;;16.40;;
4652;SDS011;9900;48.738;9.306;2023-05-16T10:53:29;20.30;;;15.17;;
4652;SDS011;9900;48.738;9.306;2023-05-16T10:56:08;23.13;;;15.73;;
4652;SDS011;9900;48.738;9.306;2023-05-16T10:58:42;19.63;;;15.30;;
4652;SDS011;9900;48.738;9.306;2023-05-16T11:01:14;23.63;;;15.70;;
4652;SDS011;9900;48.738;9.306;2023-05-16T11:03:59;22.90;;;15.10;;
4652;SDS011;9900;48.738;9.306;2023-05-16T11:06:29;23.43;;;15.90;;
4652;SDS011;9900;48.738;9.306;2023-05-16T11:09:06;21.90;;;16.10;;
4652;SDS011;9900;48.738;9.306;2023-05-16T11:11:41;23.57;;;16.90;;
4652;SDS011;9900;48.738;9.306;2023-05-16T11:14:20;24.03;;;16.60;;
4652;SDS011;9900;48.738;9.306;2023-05-16T11:16:50;20.07;;;15.30;;
4652;SDS011;9900;48.738;9.306;2023-05-16T11:19:29;20.40;;;14.80;;
4652;SDS011;9900;48.738;9.306;2023-05-16T11:22:09;19.03;;;14.17;;
4652;SDS011;9900;48.738;9.306;2023-05-16T11:24:48;20.33;;;15.37;;
4652;SDS011;9900;48.738;9.306;2023-05-16T11:27:21;20.17;;;15.10;;
4652;SDS011;9900;48.738;9.306;2023-05-16T11:29:56;21.17;;;15.00;;
4652;SDS011;9900;48.738;9.306;2023-05-16T11:32:31;23.30;;;15.90;;
4652;SDS011;9900;48.738;9.306;2023-05-16T11:35:03;23.23;;;15.27;;
4652;SDS011;9900;48.738;9.306;2023-05-16T11:37:34;21.60;;;15.77;;
4652;SDS011;9900;48.738;9.306;2023-05-16T11:40:04;21.97;;;15.40;;
4652;SDS011;9900;48.738;9.306;2023-05-16T11:42:35;18.03;;;13.37;;
4652;SDS011;9900;48.738;9.306;2023-05-16T11:45:08;17.70;;;12.70;;
4652;SDS011;9900;48.738;9.306;2023-05-16T11:47:38;15.50;;;11.50;;
4652;SDS011;9900;48.738;9.306;2023-05-16T11:50:10;19.30;;;13.30;;
4652;SDS011;9900;48.738;9.306;2023-05-16T11:52:41;16.43;;;11.00;;
4652;SDS011;9900;48.738;9.306;2023-05-16T11:55:11;14.57;;;10.53;;
4652;SDS011;9900;48.738;9.306;2023-05-16T11:57:55;15.40;;;10.83;;
4652;SDS011;9900;48.738;9.306;2023-05-16T12:00:26;14.60;;;10.00;;
4652;SDS011;9900;48.738;9.306;2023-05-16T12:03:00;10.90;;;8.83;;
4652;SDS011;9900;48.738;9.306;2023-05-16T12:05:31;12.83;;;9.73;;
4652;SDS011;9900;48.738;9.306;2023-05-16T12:08:01;13.83;;;9.50;;
4652;SDS011;9900;48.738;9.306;2023-05-16T12:10:32;17.17;;;10.00;;
4652;SDS011;9900;48.738;9.306;2023-05-16T12:13:01;12.23;;;9.43;;
4652;SDS011;9900;48.738;9.306;2023-05-16T12:15:31;10.60;;;9.33;;
4652;SDS011;9900;48.738;9.306;2023-05-16T12:18:00;11.70;;;9.00;;
4652;SDS011;9900;48.738;9.306;2023-05-16T12:20:29;10.10;;;8.53;;
4652;SDS011;9900;48.738;9.306;2023-05-16T12:22:58;12.00;;;8.40;;
4652;SDS011;9900;48.738;9.306;2023-05-16T12:25:28;11.40;;;8.10;;
4652;SDS011;9900;48.738;9.306;2023-05-16T12:27:58;13.70;;;8.50;;
4652;SDS011;9900;48.738;9.306;2023-05-16T12:30:28;10.53;;;7.77;;
4652;SDS011;9900;48.738;9.306;2023-05-16T12:33:02;11.43;;;8.97;;
4652;SDS011;9900;48.738;9.306;2023-05-16T12:35:37;10.23;;;7.67;;
4652;SDS011;9900;48.738;9.306;2023-05-16T12:38:07;12.70;;;7.70;;
4652;SDS011;9900;48.738;9.306;2023-05-16T12:40:38;12.10;;;6.90;;
4652;SDS011;9900;48.738;9.306;2023-05-16T12:43:11;14.57;;;7.97;;
4652;SDS011;9900;48.738;9.306;2023-05-16T12:45:40;10.07;;;6.97;;
4652;SDS011;9900;48.738;9.306;2023-05-16T12:48:12;8.53;;;6.07;;
4652;SDS011;9900;48.738;9.306;2023-05-16T12:50:41;8.70;;;6.30;;
4652;SDS011;9900;48.738;9.306;2023-05-16T12:53:11;9.90;;;6.90;;
4652;SDS011;9900;48.738;9.306;2023-05-16T12:55:40;8.33;;;5.63;;
4652;SDS011;9900;48.738;9.306;2023-05-16T12:58:10;6.00;;;5.40;;
4652;SDS011;9900;48.738;9.306;2023-05-16T13:00:39;5.70;;;5.10;;
4652;SDS011;9900;48.738;9.306;2023-05-16T13:03:07;6.87;;;5.53;;
4652;SDS011;9900;48.738;9.306;2023-05-16T13:05:38;6.10;;;5.10;;
4652;SDS011;9900;48.738;9.306;2023-05-16T13:08:07;6.70;;;5.33;;
4652;SDS011;9900;48.738;9.306;2023-05-16T13:10:35;5.33;;;4.83;;
4652;SDS011;9900;48.738;9.306;2023-05-16T13:13:04;5.30;;;4.80;;
4652;SDS011;9900;48.738;9.306;2023-05-16T13:15:33;5.57;;;4.93;;
4652;SDS011;9900;48.738;9.306;2023-05-16T13:18:02;5.80;;;5.10;;
4652;SDS011;9900;48.738;9.306;2023-05-16T13:20:31;6.43;;;4.53;;
4652;SDS011;9900;48.738;9.306;2023-05-16T13:23:01;5.40;;;4.17;;
4652;SDS011;9900;48.738;9.306;2023-05-16T13:25:31;4.03;;;3.73;;
4652;SDS011;9900;48.738;9.306;2023-05-16T13:28:00;4.33;;;3.93;;
4652;SDS011;9900;48.738;9.306;2023-05-16T13:30:29;5.03;;;3.93;;
4652;SDS011;9900;48.738;9.306;2023-05-16T13:32:58;5.53;;;3.50;;
4652;SDS011;9900;48.738;9.306;2023-05-16T13:35:27;4.10;;;3.70;;
4652;SDS011;9900;48.738;9.306;2023-05-16T13:37:56;4.40;;;4.00;;
4652;SDS011;9900;48.738;9.306;2023-05-16T13:40:26;4.30;;;3.33;;
4652;SDS011;9900;48.738;9.306;2023-05-16T13:42:55;7.30;;;3.00;;
4652;SDS011;9900;48.738;9.306;2023-05-16T13:45:24;4.37;;;3.30;;
4652;SDS011;9900;48.738;9.306;2023-05-16T13:47:54;3.03;;;2.77;;
4652;SDS011;9900;48.738;9.306;2023-05-16T13:50:22;4.43;;;2.90;;
4652;SDS011;9900;48.738;9.306;2023-05-16T13:52:51;4.07;;;2.97;;
4652;SDS011;9900;48.738;9.306;2023-05-16T13:55:20;4.03;;;3.10;;
4652;SDS011;9900;48.738;9.306;2023-05-16T13:57:51;3.83;;;2.87;;
4652;SDS011;9900;48.738;9.306;2023-05-16T14:00:20;2.73;;;2.50;;
4652;SDS011;9900;48.738;9.306;2023-05-16T14:02:51;5.50;;;2.90;;
4652;SDS011;9900;48.738;9.306;2023-05-16T14:05:20;2.80;;;2.60;;
4652;SDS011;9900;48.738;9.306;2023-05-16T14:07:49;3.10;;;2.53;;
4652;SDS011;9900;48.738;9.306;2023-05-16T14:10:18;4.10;;;2.00;;
4652;SDS011;9900;48.738;9.306;2023-05-16T14:12:47;6.07;;;3.70;;
4652;SDS011;9900;48.738;9.306;2023-05-16T14:15:17;4.80;;;3.93;;
4652;SDS011;9900;48.738;9.306;2023-05-16T14:17:47;2.40;;;2.20;;
4652;SDS011;9900;48.738;9.306;2023-05-16T14:20:18;6.40;;;2.63;;
4652;SDS011;9900;48.738;9.306;2023-05-16T14:22:47;4.50;;;2.80;;
4652;SDS011;9900;48.738;9.306;2023-05-16T14:25:16;3.83;;;2.63;;
4652;SDS011;9900;48.738;9.306;2023-05-16T14:27:44;4.10;;;2.80;;
4652;SDS011;9900;48.738;9.306;2023-05-16T14:30:13;6.23;;;3.10;;
4652;SDS011;9900;48.738;9.306;2023-05-16T14:32:43;2.60;;;2.40;;
4652;SDS011;9900;48.738;9.306;2023-05-16T14:35:12;2.47;;;2.20;;
4652;SDS011;9900;48.738;9.306;2023-05-16T14:37:41;2.60;;;2.40;;
4652;SDS011;9900;48.738;9.306;2023-05-16T14:40:10;3.70;;;2.60;;
4652;SDS011;9900;48.738;9.306;2023-05-16T14:42:39;4.30;;;2.50;;
4652;SDS011;9900;48.738;9.306;2023-05-16T14:45:08;2.90;;;2.50;;
4652;SDS011;9900;48.738;9.306;2023-05-16T14:47:37;2.57;;;1.97;;
4652;SDS011;9900;48.738;9.306;2023-05-16T14:50:08;3.00;;;2.27;;
4652;SDS011;9900;48.738;9.306;2023-05-16T14:52:38;2.37;;;2.10;;
4652;SDS011;9900;48.738;9.306;2023-05-16T14:55:07;1.97;;;1.87;;
4652;SDS011;9900;48.738;9.306;2023-05-16T14:57:36;3.37;;;2.57;;
4652;SDS011;9900;48.738;9.306;2023-05-16T15:00:05;2.20;;;2.00;;
4652;SDS011;9900;48.738;9.306;2023-05-16T15:02:36;2.50;;;2.30;;
4652;SDS011;9900;48.738;9.306;2023-05-16T15:05:06;2.20;;;2.10;;
4652;SDS011;9900;48.738;9.306;2023-05-16T15:07:36;3.23;;;2.20;;
4652;SDS011;9900;48.738;9.306;2023-05-16T15:10:05;2.80;;;2.40;;
4652;SDS011;9900;48.738;9.306;2023-05-16T15:12:35;2.33;;;2.13;;
4652;SDS011;9900;48.738;9.306;2023-05-16T15:15:04;2.33;;;2.00;;